Skip Navigation Links Skip Navigation Links

Current Weather

King Abdul Aziz Intl Apt, Jeddah, Saudi Arabia

For information only: do not use for flight planning or navigation.
Latest weather
Observation time Tuesday, October 19, 2021 11:00 AM +03
Local time Tuesday, October 19, 2021 11:14 AM +03
Flight conditions Visual Meteorological Conditions
Winds
Wind direction West (280°)
Wind speed 6 mph
Visibility 6.2 mi.
Sky condition
Ceiling unlimited
Sky clear
Temperature 95°F
Dewpoint 75°F
Altimeter 29.85 in.Hg
Derived measurements
Relative humidity 53%
Heat index 107°F
Density altitude 2799 ft.
Remarks
Ceiling and visibility OK.
No significant changes expected in the next two hours.
METAR OEJN 190800Z 28005KT CAVOK 35/24 Q1011 NOSIG

Settings

Location code

InnerDrive.Weather 4.0.6770.0 Release CLR 4.0.30319.42000
Copyright ©2018 Inner Drive Technology. All rights reserved. Portions Copyright ©1986-2018 David Braverman.

Find weather

Site navigation


Skip Navigation Links

Place info

Page info

PayPal - The safer, easier way to pay online!

Return home.

Copyright ©2021 Inner Drive Technology. Purveyors of fine, hand-crafted computer software. Page printed 2021-10-19T08:14:25 UTC.